Time,TemperatureF,DewpointF,PressureIn,WindDirection,WindDirectionDegrees,WindSpeedMPH,WindSpeedGustMPH,Humidity,HourlyPrecipIn,Conditions,Clouds,dailyrainin,SolarRadiationWatts/m^2,SoftwareType,DateUTC
2014-12-20 00:04:00,27.3,22.6,30.22,NNW,330,0.0,0.0,82,-99.99,,,-99.99,0.0,1-wire,2014-12-20 06:04:00,
2014-12-20 00:09:00,27.2,22.6,30.22,NNW,330,0.0,0.0,83,-99.99,,,-99.99,0.0,1-wire,2014-12-20 06:09:00,
2014-12-20 00:15:00,27.3,22.5,30.21,SW,227,0.0,0.0,82,-99.99,,,-99.99,0.0,1-wire,2014-12-20 06:15:00,
2014-12-20 00:20:00,27.7,22.9,30.22,SW,227,0.0,0.0,82,-99.99,,,-99.99,0.0,1-wire,2014-12-20 06:20:00,
2014-12-20 00:25:00,27.7,22.9,30.21,SW,227,0.0,0.0,82,-99.99,,,-99.99,3.0,1-wire,2014-12-20 06:25:00,
2014-12-20 00:30:00,27.3,22.5,30.22,SW,229,0.0,0.0,82,-99.99,,,-99.99,0.0,1-wire,2014-12-20 06:30:00,
2014-12-20 00:35:00,27.3,22.5,30.22,SW,229,0.0,0.0,82,-99.99,,,-99.99,1.5,1-wire,2014-12-20 06:35:00,
2014-12-20 00:40:00,27.3,22.5,30.21,SW,229,0.0,0.0,82,-99.99,,,-99.99,0.0,1-wire,2014-12-20 06:40:00,
2014-12-20 00:45:00,27.8,22.9,30.21,SW,220,0.0,0.0,82,-99.99,,,-99.99,0.0,1-wire,2014-12-20 06:45:00,
2014-12-20 00:50:00,27.7,22.7,30.21,SW,220,0.0,0.0,81,-99.99,,,-99.99,0.0,1-wire,2014-12-20 06:50:00,
2014-12-20 00:55:00,27.6,22.6,30.21,SW,220,0.0,0.0,81,-99.99,,,-99.99,0.0,1-wire,2014-12-20 06:55:00,
2014-12-20 01:00:00,27.7,22.8,30.21,SSW,206,0.0,0.0,82,-99.99,,,-99.99,0.0,1-wire,2014-12-20 07:00:00,
2014-12-20 01:06:00,27.7,22.9,30.21,SSW,206,0.0,0.0,82,-99.99,,,-99.99,0.0,1-wire,2014-12-20 07:06:00,
2014-12-20 01:11:00,27.7,22.7,30.21,NNE,12,0.0,0.0,81,-99.99,,,-99.99,0.0,1-wire,2014-12-20 07:11:00,
2014-12-20 01:16:00,27.8,22.8,30.20,NNE,12,0.0,0.0,81,-99.99,,,-99.99,0.0,1-wire,2014-12-20 07:16:00,
2014-12-20 01:21:00,27.8,22.8,30.22,NNE,12,0.0,0.0,81,-99.99,,,-99.99,1.5,1-wire,2014-12-20 07:21:00,
2014-12-20 01:26:00,27.7,22.7,30.21,NNE,21,0.0,0.0,81,-99.99,,,-99.99,0.0,1-wire,2014-12-20 07:26:00,
2014-12-20 01:31:00,27.9,22.9,30.22,NNE,21,0.0,0.0,81,-99.99,,,-99.99,0.0,1-wire,2014-12-20 07:31:00,
2014-12-20 01:36:00,27.7,22.6,30.22,NNE,21,0.0,0.0,81,-99.99,,,-99.99,0.0,1-wire,2014-12-20 07:36:00,
2014-12-20 01:41:00,27.2,22.4,30.22,North,351,0.0,0.0,82,-99.99,,,-99.99,0.0,1-wire,2014-12-20 07:41:00,
2014-12-20 01:46:00,27.2,22.3,30.22,North,351,0.0,0.0,82,-99.99,,,-99.99,0.0,1-wire,2014-12-20 07:46:00,
2014-12-20 01:51:00,27.1,22.4,30.22,North,351,0.0,0.0,82,-99.99,,,-99.99,0.0,1-wire,2014-12-20 07:51:00,
2014-12-20 01:56:00,27.4,22.5,30.22,NNW,345,0.0,0.0,82,-99.99,,,-99.99,0.0,1-wire,2014-12-20 07:56:00,
2014-12-20 02:01:00,27.3,22.6,30.22,NNW,345,0.0,0.0,82,-99.99,,,-99.99,0.0,1-wire,2014-12-20 08:01:00,
2014-12-20 02:06:00,27.3,22.6,30.22,NNW,345,0.0,2.0,82,-99.99,,,-99.99,0.0,1-wire,2014-12-20 08:06:00,
2014-12-20 02:11:00,27.5,22.7,30.22,South,181,0.0,0.0,82,-99.99,,,-99.99,0.0,1-wire,2014-12-20 08:11:00,
2014-12-20 02:16:00,27.5,22.7,30.22,South,181,0.0,0.0,82,-99.99,,,-99.99,0.0,1-wire,2014-12-20 08:16:00,
2014-12-20 02:21:00,28.0,23.0,30.23,South,181,0.0,0.0,81,-99.99,,,-99.99,0.0,1-wire,2014-12-20 08:21:00,
2014-12-20 02:26:00,27.7,22.8,30.23,SSE,166,1.0,2.0,82,-99.99,,,-99.99,0.0,1-wire,2014-12-20 08:26:00,
2014-12-20 02:31:00,27.5,22.7,30.23,SSE,166,0.0,0.0,82,-99.99,,,-99.99,0.0,1-wire,2014-12-20 08:31:00,
2014-12-20 02:36:00,27.7,22.8,30.23,SSE,166,0.0,1.0,82,-99.99,,,-99.99,0.0,1-wire,2014-12-20 08:36:00,
2014-12-20 02:41:00,27.7,22.9,30.23,South,182,0.0,0.0,82,-99.99,,,-99.99,1.5,1-wire,2014-12-20 08:41:00,
2014-12-20 02:46:00,27.2,22.5,30.23,South,182,0.0,0.0,82,-99.99,,,-99.99,0.0,1-wire,2014-12-20 08:46:00,
2014-12-20 02:51:00,27.4,22.9,30.22,South,182,1.0,4.0,83,-99.99,,,-99.99,0.0,1-wire,2014-12-20 08:51:00,
2014-12-20 02:56:00,27.3,22.8,30.22,South,183,0.0,2.0,83,-99.99,,,-99.99,0.0,1-wire,2014-12-20 08:56:00,
2014-12-20 03:01:00,27.5,22.9,30.22,South,183,1.0,3.0,83,-99.99,,,-99.99,0.0,1-wire,2014-12-20 09:01:00,
2014-12-20 03:06:00,27.6,23.0,30.22,South,183,0.0,0.0,82,-99.99,,,-99.99,1.5,1-wire,2014-12-20 09:06:00,
2014-12-20 03:11:00,27.6,23.1,30.22,South,188,0.0,0.0,83,-99.99,,,-99.99,0.0,1-wire,2014-12-20 09:11:00,
2014-12-20 03:16:00,27.7,23.1,30.22,South,188,0.0,0.0,83,-99.99,,,-99.99,0.0,1-wire,2014-12-20 09:16:00,
2014-12-20 03:21:00,27.8,23.3,30.22,South,188,2.0,5.0,83,-99.99,,,-99.99,0.0,1-wire,2014-12-20 09:21:00,
2014-12-20 03:26:00,27.9,23.4,30.22,South,188,0.0,2.0,83,-99.99,,,-99.99,0.0,1-wire,2014-12-20 09:26:00,
2014-12-20 03:31:00,27.7,23.2,30.22,South,188,0.0,0.0,83,-99.99,,,-99.99,0.0,1-wire,2014-12-20 09:31:00,
2014-12-20 03:36:00,27.8,23.2,30.22,South,188,0.0,0.0,83,-99.99,,,-99.99,1.5,1-wire,2014-12-20 09:36:00,
2014-12-20 03:41:00,27.8,23.2,30.22,South,179,0.0,0.0,83,-99.99,,,-99.99,0.0,1-wire,2014-12-20 09:41:00,
2014-12-20 03:46:00,27.7,23.2,30.22,South,179,0.0,0.0,83,-99.99,,,-99.99,0.0,1-wire,2014-12-20 09:46:00,
2014-12-20 03:51:00,27.8,23.2,30.21,South,179,0.0,0.0,83,-99.99,,,-99.99,0.0,1-wire,2014-12-20 09:51:00,
2014-12-20 03:56:00,28.0,23.4,30.21,South,186,0.0,0.0,83,-99.99,,,-99.99,0.0,1-wire,2014-12-20 09:56:00,
2014-12-20 04:02:00,27.9,23.4,30.21,South,186,0.0,0.0,83,-99.99,,,-99.99,0.0,1-wire,2014-12-20 10:02:00,
2014-12-20 04:07:00,28.2,23.5,30.21,South,186,0.0,0.0,82,-99.99,,,-99.99,0.0,1-wire,2014-12-20 10:07:00,
2014-12-20 04:12:00,28.2,23.6,30.21,SSW,196,0.0,0.0,83,-99.99,,,-99.99,0.0,1-wire,2014-12-20 10:12:00,
2014-12-20 04:17:00,28.2,23.6,30.21,SSW,196,0.0,0.0,82,-99.99,,,-99.99,0.0,1-wire,2014-12-20 10:17:00,
2014-12-20 04:22:00,28.4,23.8,30.21,SSW,196,0.0,0.0,83,-99.99,,,-99.99,0.0,1-wire,2014-12-20 10:22:00,
2014-12-20 04:27:00,28.3,23.7,30.21,SSW,192,0.0,0.0,82,-99.99,,,-99.99,0.0,1-wire,2014-12-20 10:27:00,
2014-12-20 04:32:00,28.1,23.6,30.21,SSW,192,0.0,0.0,83,-99.99,,,-99.99,0.0,1-wire,2014-12-20 10:32:00,
2014-12-20 04:37:00,28.5,23.9,30.21,SSW,192,0.0,0.0,83,-99.99,,,-99.99,0.0,1-wire,2014-12-20 10:37:00,
2014-12-20 04:42:00,28.7,24.0,30.21,SSW,209,0.0,0.0,83,-99.99,,,-99.99,0.0,1-wire,2014-12-20 10:42:00,
2014-12-20 04:47:00,28.2,23.7,30.21,SSW,209,0.0,0.0,83,-99.99,,,-99.99,0.0,1-wire,2014-12-20 10:47:00,
2014-12-20 04:52:00,28.1,23.6,30.21,SSW,209,0.0,0.0,83,-99.99,,,-99.99,0.0,1-wire,2014-12-20 10:52:00,
2014-12-20 04:57:00,28.1,23.6,30.21,South,174,0.0,0.0,83,-99.99,,,-99.99,0.0,1-wire,2014-12-20 10:57:00,
2014-12-20 05:02:00,28.3,23.8,30.22,South,174,0.0,0.0,83,-99.99,,,-99.99,0.0,1-wire,2014-12-20 11:02:00,
2014-12-20 05:07:00,28.0,23.5,30.22,South,174,0.0,0.0,83,-99.99,,,-99.99,0.0,1-wire,2014-12-20 11:07:00,
2014-12-20 05:12:00,27.9,23.5,30.21,NNW,330,0.0,0.0,83,-99.99,,,-99.99,1.5,1-wire,2014-12-20 11:12:00,
2014-12-20 05:17:00,27.9,23.5,30.21,NNW,330,0.0,0.0,84,-99.99,,,-99.99,1.5,1-wire,2014-12-20 11:17:00,
2014-12-20 05:22:00,28.0,23.6,30.21,NNW,330,0.0,0.0,83,-99.99,,,-99.99,0.0,1-wire,2014-12-20 11:22:00,
2014-12-20 05:28:00,28.1,23.7,30.21,NNW,337,0.0,0.0,83,-99.99,,,-99.99,0.0,1-wire,2014-12-20 11:28:00,
2014-12-20 05:33:00,28.2,23.8,30.21,NNW,337,0.0,0.0,83,-99.99,,,-99.99,1.5,1-wire,2014-12-20 11:33:00,
2014-12-20 05:38:00,28.2,23.7,30.21,NNW,337,0.0,0.0,83,-99.99,,,-99.99,0.0,1-wire,2014-12-20 11:38:00,
2014-12-20 05:43:00,28.2,23.7,30.21,NNW,343,0.0,0.0,83,-99.99,,,-99.99,0.0,1-wire,2014-12-20 11:43:00,
2014-12-20 05:48:00,28.2,23.9,30.21,NNW,343,0.0,0.0,84,-99.99,,,-99.99,0.0,1-wire,2014-12-20 11:48:00,
2014-12-20 05:53:00,28.4,24.0,30.22,NNW,343,0.0,0.0,83,-99.99,,,-99.99,0.0,1-wire,2014-12-20 11:53:00,
2014-12-20 05:58:00,28.3,23.9,30.22,NNW,341,0.0,0.0,83,-99.99,,,-99.99,1.5,1-wire,2014-12-20 11:58:00,
2014-12-20 06:03:00,28.2,23.8,30.21,NNW,341,0.0,0.0,83,-99.99,,,-99.99,0.0,1-wire,2014-12-20 12:03:00,
2014-12-20 06:08:00,28.3,23.7,30.21,NNW,341,0.0,0.0,83,-99.99,,,-99.99,0.0,1-wire,2014-12-20 12:08:00,
2014-12-20 06:13:00,28.5,24.0,30.21,NNW,346,0.0,0.0,83,-99.99,,,-99.99,0.0,1-wire,2014-12-20 12:13:00,
2014-12-20 06:18:00,28.5,24.0,30.20,NNW,346,0.0,0.0,83,-99.99,,,-99.99,0.0,1-wire,2014-12-20 12:18:00,
2014-12-20 06:24:00,28.5,24.0,30.21,NNW,346,0.0,0.0,83,-99.99,,,-99.99,0.0,1-wire,2014-12-20 12:24:00,
2014-12-20 06:29:00,28.5,24.1,30.21,North,2,0.0,0.0,83,-99.99,,,-99.99,0.0,1-wire,2014-12-20 12:29:00,
2014-12-20 06:34:00,28.3,23.9,30.21,North,2,0.0,0.0,83,-99.99,,,-99.99,0.0,1-wire,2014-12-20 12:34:00,
2014-12-20 06:39:00,28.4,24.1,30.20,North,2,0.0,0.0,84,-99.99,,,-99.99,0.0,1-wire,2014-12-20 12:39:00,
2014-12-20 06:44:00,28.4,23.9,30.21,NNE,28,0.0,0.0,83,-99.99,,,-99.99,1.8,1-wire,2014-12-20 12:44:00,
2014-12-20 06:49:00,28.1,23.8,30.21,NNE,28,0.0,0.0,83,-99.99,,,-99.99,0.0,1-wire,2014-12-20 12:49:00,
2014-12-20 06:54:00,28.4,24.1,30.21,NNE,28,0.0,0.0,84,-99.99,,,-99.99,0.0,1-wire,2014-12-20 12:54:00,
2014-12-20 06:59:00,28.1,23.9,30.21,NNE,28,0.0,0.0,84,-99.99,,,-99.99,0.0,1-wire,2014-12-20 12:59:00,
2014-12-20 07:04:00,28.0,23.8,30.22,North,5,0.0,2.0,84,-99.99,,,-99.99,1.5,1-wire,2014-12-20 13:04:00,
2014-12-20 07:10:00,28.0,23.8,30.21,North,5,0.0,0.0,84,-99.99,,,-99.99,0.0,1-wire,2014-12-20 13:10:00,
2014-12-20 07:15:00,28.1,24.0,30.21,East,100,0.0,2.0,84,-99.99,,,-99.99,1.5,1-wire,2014-12-20 13:15:00,
2014-12-20 07:21:00,28.0,23.8,30.21,East,100,0.0,0.0,84,-99.99,,,-99.99,0.0,1-wire,2014-12-20 13:21:00,
2014-12-20 07:26:00,27.9,23.7,30.21,SE,138,0.0,0.0,84,-99.99,,,-99.99,0.0,1-wire,2014-12-20 13:26:00,
2014-12-20 07:31:00,28.1,23.8,30.22,East,99,0.0,0.0,84,-99.99,,,-99.99,3.6,1-wire,2014-12-20 13:31:00,
2014-12-20 07:36:00,28.4,24.2,30.21,East,99,0.0,0.0,84,-99.99,,,-99.99,1.8,1-wire,2014-12-20 13:36:00,
2014-12-20 07:41:00,28.1,23.9,30.21,East,96,0.0,0.0,84,-99.99,,,-99.99,7.3,1-wire,2014-12-20 13:41:00,
2014-12-20 07:46:00,28.1,23.9,30.21,East,96,0.0,0.0,84,-99.99,,,-99.99,9.1,1-wire,2014-12-20 13:46:00,
2014-12-20 07:51:00,28.4,24.3,30.21,East,96,0.0,0.0,85,-99.99,,,-99.99,9.1,1-wire,2014-12-20 13:51:00,
2014-12-20 07:56:00,28.3,24.0,30.21,East,89,0.0,0.0,84,-99.99,,,-99.99,9.1,1-wire,2014-12-20 13:56:00,
2014-12-20 08:01:00,28.1,23.9,30.20,East,89,0.0,1.0,84,-99.99,,,-99.99,14.6,1-wire,2014-12-20 14:01:00,
2014-12-20 08:06:00,28.3,24.2,30.21,East,89,0.0,0.0,84,-99.99,,,-99.99,18.3,1-wire,2014-12-20 14:06:00,
2014-12-20 08:11:00,28.2,24.1,30.21,East,96,0.0,0.0,84,-99.99,,,-99.99,18.3,1-wire,2014-12-20 14:11:00,
2014-12-20 08:16:00,28.3,24.2,30.21,East,96,0.0,0.0,84,-99.99,,,-99.99,18.3,1-wire,2014-12-20 14:16:00,
2014-12-20 08:21:00,28.1,24.0,30.21,East,96,0.0,2.0,84,-99.99,,,-99.99,18.3,1-wire,2014-12-20 14:21:00,
2014-12-20 08:26:00,28.3,24.2,30.21,SE,128,0.0,0.0,84,-99.99,,,-99.99,25.6,1-wire,2014-12-20 14:26:00,
2014-12-20 08:31:00,28.3,24.2,30.22,SE,128,0.0,2.0,84,-99.99,,,-99.99,25.6,1-wire,2014-12-20 14:31:00,
2014-12-20 08:36:00,28.5,24.3,30.22,SE,128,0.0,2.0,84,-99.99,,,-99.99,29.2,1-wire,2014-12-20 14:36:00,
2014-12-20 08:41:00,28.5,24.3,30.22,SSW,194,0.0,2.0,84,-99.99,,,-99.99,27.4,1-wire,2014-12-20 14:41:00,
2014-12-20 08:46:00,28.6,24.2,30.22,SSW,194,1.0,3.0,83,-99.99,,,-99.99,34.8,1-wire,2014-12-20 14:46:00,
2014-12-20 08:51:00,28.4,24.1,30.22,SSW,194,1.0,2.0,84,-99.99,,,-99.99,36.6,1-wire,2014-12-20 14:51:00,
2014-12-20 08:56:00,28.7,24.4,30.22,WNW,282,0.0,0.0,84,-99.99,,,-99.99,36.6,1-wire,2014-12-20 14:56:00,
2014-12-20 09:01:00,28.5,24.2,30.22,South,172,0.0,0.0,84,-99.99,,,-99.99,36.6,1-wire,2014-12-20 15:01:00,
2014-12-20 09:07:00,28.9,24.5,30.22,South,172,0.0,0.0,83,-99.99,,,-99.99,36.6,1-wire,2014-12-20 15:07:00,
2014-12-20 09:13:00,28.9,24.4,30.21,SSE,162,0.0,0.0,83,-99.99,,,-99.99,38.1,1-wire,2014-12-20 15:13:00,
2014-12-20 09:19:00,29.0,24.4,30.21,SSE,162,0.0,0.0,83,-99.99,,,-99.99,40.3,1-wire,2014-12-20 15:19:00,
2014-12-20 09:24:00,29.1,24.6,30.22,SSE,162,0.0,0.0,83,-99.99,,,-99.99,36.6,1-wire,2014-12-20 15:24:00,
2014-12-20 09:29:00,29.0,24.4,30.21,South,176,0.0,0.0,83,-99.99,,,-99.99,36.6,1-wire,2014-12-20 15:29:00,
2014-12-20 09:34:00,28.9,24.4,30.21,South,176,0.0,2.0,83,-99.99,,,-99.99,36.6,1-wire,2014-12-20 15:34:00,
2014-12-20 09:40:00,29.6,24.9,30.22,South,176,0.0,0.0,82,-99.99,,,-99.99,36.6,1-wire,2014-12-20 15:40:00,
2014-12-20 09:45:00,29.7,24.9,30.21,SSE,154,0.0,0.0,82,-99.99,,,-99.99,36.6,1-wire,2014-12-20 15:45:00,
2014-12-20 09:50:00,29.5,24.7,30.21,SSE,154,0.0,1.0,82,-99.99,,,-99.99,36.6,1-wire,2014-12-20 15:50:00,
2014-12-20 09:55:00,29.5,24.5,30.22,SSE,154,0.0,0.0,81,-99.99,,,-99.99,45.8,1-wire,2014-12-20 15:55:00,
2014-12-20 10:00:00,30.1,25.0,30.22,SSE,152,0.0,0.0,81,-99.99,,,-99.99,54.9,1-wire,2014-12-20 16:00:00,
2014-12-20 10:05:00,30.3,25.1,30.22,SSE,152,0.0,0.0,81,-99.99,,,-99.99,54.9,1-wire,2014-12-20 16:05:00,
2014-12-20 10:10:00,30.4,25.2,30.22,SSE,152,0.0,0.0,81,-99.99,,,-99.99,54.9,1-wire,2014-12-20 16:10:00,
2014-12-20 10:15:00,29.9,24.5,30.22,SE,144,0.0,2.0,80,-99.99,,,-99.99,54.9,1-wire,2014-12-20 16:15:00,
2014-12-20 10:20:00,30.1,24.9,30.22,SE,144,0.0,0.0,81,-99.99,,,-99.99,49.4,1-wire,2014-12-20 16:20:00,
2014-12-20 10:25:00,30.3,25.0,30.22,SE,144,0.0,0.0,80,-99.99,,,-99.99,47.6,1-wire,2014-12-20 16:25:00,
2014-12-20 10:30:00,30.0,24.6,30.22,SE,145,0.0,0.0,80,-99.99,,,-99.99,50.4,1-wire,2014-12-20 16:30:00,
2014-12-20 10:35:00,30.3,25.0,30.22,SE,145,0.0,2.0,80,-99.99,,,-99.99,48.8,1-wire,2014-12-20 16:35:00,
2014-12-20 10:40:00,30.0,24.8,30.22,SE,145,0.0,0.0,81,-99.99,,,-99.99,51.9,1-wire,2014-12-20 16:40:00,
2014-12-20 10:45:00,29.9,24.6,30.22,South,181,0.0,2.0,80,-99.99,,,-99.99,53.4,1-wire,2014-12-20 16:45:00,
2014-12-20 10:50:00,29.8,24.5,30.22,South,181,1.0,3.0,81,-99.99,,,-99.99,50.3,1-wire,2014-12-20 16:50:00,
2014-12-20 10:55:00,29.7,24.5,30.21,South,181,0.0,2.0,81,-99.99,,,-99.99,54.9,1-wire,2014-12-20 16:55:00,
2014-12-20 11:00:00,30.1,24.6,30.21,South,170,0.0,2.0,80,-99.99,,,-99.99,54.9,1-wire,2014-12-20 17:00:00,
2014-12-20 11:06:00,30.5,25.1,30.20,South,170,0.0,0.0,80,-99.99,,,-99.99,54.9,1-wire,2014-12-20 17:06:00,
2014-12-20 11:11:00,30.4,25.0,30.20,SSE,162,2.0,5.0,80,-99.99,,,-99.99,50.3,1-wire,2014-12-20 17:11:00,
2014-12-20 11:16:00,30.0,24.4,30.20,SE,134,1.0,2.0,80,-99.99,,,-99.99,48.8,1-wire,2014-12-20 17:16:00,
2014-12-20 11:21:00,30.1,24.6,30.20,SE,134,1.0,3.0,80,-99.99,,,-99.99,54.9,1-wire,2014-12-20 17:21:00,
2014-12-20 11:26:00,30.1,24.7,30.20,SSE,151,0.0,0.0,80,-99.99,,,-99.99,47.3,1-wire,2014-12-20 17:26:00,
2014-12-20 11:31:00,30.3,24.9,30.20,SSE,151,0.0,0.0,80,-99.99,,,-99.99,54.9,1-wire,2014-12-20 17:31:00,
2014-12-20 11:36:00,30.3,25.0,30.20,SSE,151,0.0,2.0,80,-99.99,,,-99.99,54.9,1-wire,2014-12-20 17:36:00,
2014-12-20 11:41:00,30.2,24.8,30.20,SSE,151,1.0,4.0,80,-99.99,,,-99.99,54.9,1-wire,2014-12-20 17:41:00,
2014-12-20 11:46:00,30.6,25.0,30.20,SSE,151,0.0,2.0,80,-99.99,,,-99.99,54.9,1-wire,2014-12-20 17:46:00,
2014-12-20 11:51:00,30.9,25.5,30.20,SSE,151,1.0,4.0,80,-99.99,,,-99.99,54.9,1-wire,2014-12-20 17:51:00,
2014-12-20 11:57:00,30.4,24.7,30.20,ESE,118,0.0,2.0,79,-99.99,,,-99.99,61.0,1-wire,2014-12-20 17:57:00,
2014-12-20 12:02:00,30.6,25.0,30.20,ESE,118,1.0,2.0,79,-99.99,,,-99.99,73.3,1-wire,2014-12-20 18:02:00,
2014-12-20 12:07:00,31.0,25.2,30.19,ESE,118,0.0,2.0,79,-99.99,,,-99.99,77.9,1-wire,2014-12-20 18:07:00,
2014-12-20 12:12:00,31.1,25.5,30.19,South,180,0.0,0.0,79,-99.99,,,-99.99,83.9,1-wire,2014-12-20 18:12:00,
2014-12-20 12:17:00,31.7,25.9,30.19,South,180,1.0,2.0,79,-99.99,,,-99.99,73.3,1-wire,2014-12-20 18:17:00,
2014-12-20 12:22:00,31.1,25.3,30.19,South,180,0.0,2.0,79,-99.99,,,-99.99,73.3,1-wire,2014-12-20 18:22:00,
2014-12-20 12:27:00,31.3,25.6,30.18,South,181,0.0,0.0,79,-99.99,,,-99.99,91.6,1-wire,2014-12-20 18:27:00,
2014-12-20 12:32:00,30.8,25.1,30.18,South,181,2.0,5.0,79,-99.99,,,-99.99,91.6,1-wire,2014-12-20 18:32:00,
2014-12-20 12:38:00,31.7,26.0,30.18,South,181,0.0,2.0,79,-99.99,,,-99.99,88.5,1-wire,2014-12-20 18:38:00,
2014-12-20 12:43:00,31.7,25.9,30.18,South,172,2.0,6.0,79,-99.99,,,-99.99,76.3,1-wire,2014-12-20 18:43:00,
2014-12-20 12:48:00,31.5,25.7,30.18,South,172,0.0,2.0,79,-99.99,,,-99.99,73.3,1-wire,2014-12-20 18:48:00,
2014-12-20 12:53:00,31.4,25.4,30.18,South,172,0.0,0.0,78,-99.99,,,-99.99,65.6,1-wire,2014-12-20 18:53:00,
2014-12-20 12:58:00,31.6,25.8,30.18,South,188,0.0,2.0,79,-99.99,,,-99.99,61.0,1-wire,2014-12-20 18:58:00,
2014-12-20 13:03:00,32.0,26.2,30.18,South,188,1.0,2.0,79,-99.99,,,-99.99,53.1,1-wire,2014-12-20 19:03:00,
2014-12-20 13:08:00,31.0,25.2,30.18,South,188,1.0,4.0,79,-99.99,,,-99.99,36.6,1-wire,2014-12-20 19:08:00,
2014-12-20 13:13:00,31.3,25.6,30.18,South,185,0.0,0.0,79,-99.99,,,-99.99,33.5,1-wire,2014-12-20 19:13:00,
2014-12-20 13:18:00,31.4,25.7,30.18,South,185,0.0,2.0,79,-99.99,,,-99.99,35.1,1-wire,2014-12-20 19:18:00,
2014-12-20 13:23:00,31.7,26.2,30.18,South,185,1.0,2.0,80,-99.99,,,-99.99,35.1,1-wire,2014-12-20 19:23:00,
2014-12-20 13:28:00,31.7,26.3,30.18,SSE,168,0.0,2.0,80,-99.99,,,-99.99,35.1,1-wire,2014-12-20 19:28:00,
2014-12-20 13:33:00,31.6,26.4,30.18,SSE,168,0.0,2.0,81,-99.99,,,-99.99,36.6,1-wire,2014-12-20 19:33:00,
2014-12-20 13:38:00,31.1,25.9,30.18,SSE,168,2.0,4.0,81,-99.99,,,-99.99,36.6,1-wire,2014-12-20 19:38:00,
2014-12-20 13:43:00,30.9,25.8,30.18,SSE,165,0.0,4.0,81,-99.99,,,-99.99,35.1,1-wire,2014-12-20 19:43:00,
2014-12-20 13:48:00,30.8,25.8,30.18,SSE,165,1.0,3.0,81,-99.99,,,-99.99,32.0,1-wire,2014-12-20 19:48:00,
2014-12-20 13:53:00,30.7,26.0,30.18,SSE,165,0.0,2.0,83,-99.99,,,-99.99,28.9,1-wire,2014-12-20 19:53:00,
2014-12-20 13:59:00,30.9,26.3,30.18,SSE,161,0.0,2.0,83,-99.99,,,-99.99,29.2,1-wire,2014-12-20 19:59:00,
2014-12-20 14:04:00,30.6,26.1,30.18,SSE,161,1.0,5.0,83,-99.99,,,-99.99,29.2,1-wire,2014-12-20 20:04:00,
2014-12-20 14:09:00,30.9,26.4,30.18,SSE,161,0.0,0.0,83,-99.99,,,-99.99,36.6,1-wire,2014-12-20 20:09:00,
2014-12-20 14:14:00,31.2,26.7,30.18,South,176,0.0,0.0,83,-99.99,,,-99.99,36.6,1-wire,2014-12-20 20:14:00,
2014-12-20 14:19:00,31.2,26.7,30.18,South,176,0.0,0.0,83,-99.99,,,-99.99,34.8,1-wire,2014-12-20 20:19:00,
2014-12-20 14:24:00,31.1,26.8,30.18,South,176,0.0,0.0,84,-99.99,,,-99.99,27.4,1-wire,2014-12-20 20:24:00,
2014-12-20 14:29:00,31.2,26.8,30.18,South,182,0.0,0.0,83,-99.99,,,-99.99,27.4,1-wire,2014-12-20 20:29:00,
2014-12-20 14:34:00,31.1,26.6,30.18,South,182,1.0,3.0,83,-99.99,,,-99.99,27.4,1-wire,2014-12-20 20:34:00,
2014-12-20 14:39:00,30.8,26.3,30.17,South,182,0.0,2.0,83,-99.99,,,-99.99,25.6,1-wire,2014-12-20 20:39:00,
2014-12-20 14:44:00,30.8,26.3,30.18,South,178,1.0,4.0,83,-99.99,,,-99.99,27.4,1-wire,2014-12-20 20:44:00,
2014-12-20 14:50:00,30.8,26.2,30.18,South,178,1.0,4.0,83,-99.99,,,-99.99,20.1,1-wire,2014-12-20 20:50:00,
2014-12-20 14:55:00,31.0,26.6,30.18,South,178,0.0,0.0,84,-99.99,,,-99.99,27.4,1-wire,2014-12-20 20:55:00,
2014-12-20 15:00:00,31.1,26.6,30.18,SSE,154,0.0,0.0,83,-99.99,,,-99.99,27.4,1-wire,2014-12-20 21:00:00,
2014-12-20 15:05:00,31.0,26.4,30.18,SSE,154,2.0,4.0,83,-99.99,,,-99.99,23.8,1-wire,2014-12-20 21:05:00,
2014-12-20 15:10:00,30.7,26.1,30.17,SSE,154,0.0,1.0,83,-99.99,,,-99.99,18.3,1-wire,2014-12-20 21:10:00,
2014-12-20 15:16:00,30.8,26.2,30.17,SSW,197,0.0,2.0,83,-99.99,,,-99.99,25.9,1-wire,2014-12-20 21:16:00,
2014-12-20 15:21:00,31.0,26.5,30.17,SSW,197,0.0,1.0,83,-99.99,,,-99.99,25.6,1-wire,2014-12-20 21:21:00,